createdAt,value
2018-06-15T00:02:28.030Z,15.60
2018-06-15T00:04:56.380Z,15.60
2018-06-15T00:07:24.715Z,15.60
2018-06-15T00:09:53.000Z,15.60
2018-06-15T00:12:21.318Z,15.50
2018-06-15T00:14:49.617Z,15.40
2018-06-15T00:17:17.910Z,15.40
2018-06-15T00:19:46.219Z,15.30
2018-06-15T00:22:14.491Z,15.40
2018-06-15T00:24:42.779Z,15.40
2018-06-15T00:27:11.105Z,15.40
2018-06-15T00:29:39.423Z,15.30
2018-06-15T00:32:07.708Z,15.40
2018-06-15T00:34:36.007Z,15.40
2018-06-15T00:37:04.315Z,15.30
2018-06-15T00:42:00.705Z,15.30
2018-06-15T00:44:29.000Z,15.30
2018-06-15T00:46:57.322Z,15.30
2018-06-15T00:49:25.637Z,15.30
2018-06-15T00:51:53.912Z,15.20
2018-06-15T00:54:22.917Z,15.20
2018-06-15T00:57:02.726Z,15.20
2018-06-15T00:59:31.069Z,15.20
2018-06-15T01:01:59.381Z,15.20
2018-06-15T01:06:55.761Z,15.20
2018-06-15T01:09:24.079Z,15.20
2018-06-15T01:11:52.381Z,15.10
2018-06-15T01:14:20.659Z,15.10
2018-06-15T01:16:48.970Z,15.10
2018-06-15T01:19:17.270Z,15.00
2018-06-15T01:21:45.554Z,15.00
2018-06-15T01:24:13.856Z,15.00
2018-06-15T01:26:42.165Z,15.00
2018-06-15T01:29:10.502Z,15.00
2018-06-15T01:31:38.807Z,15.00
2018-06-15T01:34:07.106Z,15.00
2018-06-15T01:36:35.436Z,14.90
2018-06-15T01:39:05.534Z,14.90
2018-06-15T01:41:33.858Z,14.90
2018-06-15T01:44:02.150Z,14.90
2018-06-15T01:46:30.628Z,14.90
2018-06-15T01:48:58.950Z,14.80
2018-06-15T01:51:27.276Z,14.80
2018-06-15T01:53:55.596Z,14.80
2018-06-15T01:56:23.936Z,14.80
2018-06-15T01:58:52.278Z,14.80
2018-06-15T02:01:20.656Z,14.70
2018-06-15T02:03:48.986Z,14.70
2018-06-15T02:06:17.302Z,14.70
2018-06-15T02:08:45.602Z,14.70
2018-06-15T02:11:13.948Z,14.70
2018-06-15T02:13:42.256Z,14.70
2018-06-15T02:16:10.553Z,14.60
2018-06-15T02:18:38.863Z,14.70
2018-06-15T02:21:07.400Z,14.70
2018-06-15T02:23:35.726Z,14.70
2018-06-15T02:26:04.070Z,14.60
2018-06-15T02:28:32.390Z,14.50
2018-06-15T02:31:00.714Z,14.50
2018-06-15T02:33:29.048Z,14.40
2018-06-15T02:35:57.356Z,14.40
2018-06-15T02:38:25.682Z,14.30
2018-06-15T02:40:53.981Z,14.30
2018-06-15T02:43:22.268Z,14.40
2018-06-15T02:45:50.575Z,14.30
2018-06-15T02:48:18.908Z,14.30
2018-06-15T02:50:47.206Z,14.40
2018-06-15T02:53:15.496Z,14.30
2018-06-15T02:55:43.800Z,14.30
2018-06-15T02:58:12.118Z,14.20
2018-06-15T03:00:40.437Z,14.10
2018-06-15T03:03:08.848Z,14.10
2018-06-15T03:05:37.160Z,14.10
2018-06-15T03:08:05.476Z,14.20
2018-06-15T03:10:33.772Z,14.20
2018-06-15T03:13:02.086Z,14.00
2018-06-15T03:15:30.418Z,14.00
2018-06-15T03:17:58.729Z,14.00
2018-06-15T03:20:27.043Z,13.90
2018-06-15T03:22:55.339Z,13.90
2018-06-15T03:25:23.630Z,13.90
2018-06-15T03:27:51.950Z,13.90
2018-06-15T03:30:20.274Z,13.90
2018-06-15T03:32:48.579Z,13.90
2018-06-15T03:35:16.892Z,14.00
2018-06-15T03:37:45.196Z,14.00
2018-06-15T03:40:13.472Z,14.00
2018-06-15T03:45:17.260Z,14.10
2018-06-15T03:47:45.546Z,14.10
2018-06-15T03:50:13.862Z,14.00
2018-06-15T03:52:42.170Z,14.10
2018-06-15T03:55:10.479Z,14.10
2018-06-15T03:57:38.793Z,14.10
2018-06-15T04:00:07.462Z,14.10
2018-06-15T04:02:35.754Z,14.00
2018-06-15T04:05:04.057Z,13.90
2018-06-15T04:07:32.365Z,13.90
2018-06-15T04:10:00.678Z,13.90
2018-06-15T04:12:29.042Z,13.90
2018-06-15T04:14:57.330Z,13.90
2018-06-15T04:17:25.676Z,13.90
2018-06-15T04:19:53.992Z,13.90
2018-06-15T04:22:22.380Z,13.90
2018-06-15T04:24:50.710Z,13.90
2018-06-15T04:27:19.008Z,13.90
2018-06-15T04:29:47.300Z,13.90
2018-06-15T04:32:15.648Z,13.90
2018-06-15T04:34:43.950Z,13.90
2018-06-15T04:37:12.289Z,13.90
2018-06-15T04:39:40.582Z,13.90
2018-06-15T04:42:08.922Z,14.00
2018-06-15T04:44:37.236Z,13.90
2018-06-15T04:47:05.680Z,13.90
2018-06-15T04:49:34.179Z,13.90
2018-06-15T04:52:02.494Z,13.90
2018-06-15T04:54:30.766Z,13.90
2018-06-15T04:56:59.063Z,14.00
2018-06-15T04:59:27.658Z,14.00
2018-06-15T05:01:55.989Z,14.00
2018-06-15T05:04:24.376Z,14.10
2018-06-15T05:06:52.697Z,14.10
2018-06-15T05:09:21.039Z,14.10
2018-06-15T05:11:49.748Z,14.20
2018-06-15T05:14:18.038Z,14.10
2018-06-15T05:16:49.338Z,14.10
2018-06-15T05:19:17.650Z,14.20
2018-06-15T05:21:45.942Z,14.20
2018-06-15T05:24:14.272Z,14.20
2018-06-15T05:26:42.592Z,14.20
2018-06-15T05:29:11.903Z,14.20
2018-06-15T05:31:40.198Z,14.20
2018-06-15T05:34:08.504Z,14.30
2018-06-15T05:36:36.828Z,14.30
2018-06-15T05:39:07.765Z,14.40
2018-06-15T05:41:36.108Z,14.40
2018-06-15T05:44:04.422Z,14.50
2018-06-15T05:49:00.874Z,14.60
2018-06-15T05:51:29.222Z,14.60
2018-06-15T05:53:57.568Z,14.70
2018-06-15T05:56:25.875Z,14.80
2018-06-15T05:58:54.197Z,14.80
2018-06-15T06:01:22.506Z,14.80
2018-06-15T06:03:50.814Z,14.80
2018-06-15T06:06:19.112Z,14.90
2018-06-15T06:08:47.450Z,15.00
2018-06-15T06:11:15.772Z,15.00
2018-06-15T06:13:44.129Z,15.10
2018-06-15T06:16:12.426Z,15.10
2018-06-15T06:18:40.746Z,15.10
2018-06-15T06:21:09.154Z,15.10
2018-06-15T06:23:37.418Z,15.10
2018-06-15T06:26:05.835Z,15.20
2018-06-15T06:28:34.131Z,15.20
2018-06-15T06:31:02.450Z,15.30
2018-06-15T06:33:30.730Z,15.40
2018-06-15T06:35:59.026Z,15.40
2018-06-15T06:38:27.350Z,15.40
2018-06-15T06:40:55.632Z,15.40
2018-06-15T06:43:23.926Z,15.40
2018-06-15T06:45:52.229Z,15.50
2018-06-15T06:48:20.576Z,15.60
2018-06-15T06:50:49.288Z,15.70
2018-06-15T06:53:17.747Z,15.70
2018-06-15T06:55:46.418Z,15.80
2018-06-15T06:58:14.981Z,15.80
2018-06-15T07:03:11.656Z,15.80
2018-06-15T07:05:39.942Z,15.90
2018-06-15T07:08:08.205Z,15.90
2018-06-15T07:10:36.532Z,16.00
2018-06-15T07:13:04.818Z,16.00
2018-06-15T07:18:01.382Z,16.10
2018-06-15T07:20:29.663Z,16.20
2018-06-15T07:22:57.974Z,16.20
2018-06-15T07:25:26.360Z,16.20
2018-06-15T07:27:54.685Z,16.20
2018-06-15T07:30:23.008Z,16.20
2018-06-15T07:32:51.307Z,16.20
2018-06-15T07:35:19.612Z,16.30
2018-06-15T07:37:47.951Z,16.40
2018-06-15T07:40:22.795Z,16.50
2018-06-15T07:42:51.095Z,16.60
2018-06-15T07:45:19.458Z,16.70
2018-06-15T07:47:47.757Z,16.80
2018-06-15T07:50:16.068Z,16.90
2018-06-15T07:52:44.600Z,17.00
2018-06-15T07:55:12.872Z,17.10
2018-06-15T07:57:41.451Z,17.10
2018-06-15T08:00:09.947Z,17.10
2018-06-15T08:02:38.626Z,17.10
2018-06-15T08:05:07.172Z,17.20
2018-06-15T08:07:35.853Z,17.20
2018-06-15T08:10:04.400Z,17.20
2018-06-15T08:12:32.989Z,17.20
2018-06-15T08:15:01.571Z,17.20
2018-06-15T08:17:30.161Z,17.30
2018-06-15T08:19:58.756Z,17.30
2018-06-15T08:22:27.028Z,17.30
2018-06-15T08:24:55.346Z,17.30
2018-06-15T08:27:23.669Z,17.40
2018-06-15T08:29:51.948Z,17.40
2018-06-15T08:32:20.232Z,17.40
2018-06-15T08:34:48.548Z,17.50
2018-06-15T08:37:16.895Z,17.50
2018-06-15T08:39:45.360Z,17.50
2018-06-15T08:42:13.657Z,17.50
2018-06-15T08:44:41.975Z,17.50
2018-06-15T08:47:10.290Z,17.50
2018-06-15T08:49:38.619Z,17.60
2018-06-15T08:52:07.174Z,17.70
2018-06-15T08:54:35.460Z,17.80
2018-06-15T08:57:03.782Z,17.80
2018-06-15T08:59:32.106Z,17.80
2018-06-15T09:02:00.377Z,17.80
2018-06-15T09:04:28.694Z,17.80
2018-06-15T09:06:57.031Z,17.80
2018-06-15T09:09:25.386Z,17.90
2018-06-15T09:11:53.778Z,17.90
2018-06-15T09:14:22.117Z,18.20
2018-06-15T09:16:50.420Z,18.30
2018-06-15T09:19:18.701Z,18.20
2018-06-15T09:21:46.984Z,18.20
2018-06-15T09:24:15.288Z,18.30
2018-06-15T09:26:43.581Z,18.30
2018-06-15T09:29:11.904Z,18.30
2018-06-15T09:31:40.165Z,18.40
2018-06-15T09:34:08.710Z,18.40
2018-06-15T09:36:37.013Z,18.50
2018-06-15T09:39:07.012Z,18.50
2018-06-15T09:41:35.311Z,18.50
2018-06-15T09:44:03.616Z,18.60
2018-06-15T09:46:31.960Z,18.60
2018-06-15T09:49:00.220Z,18.60
2018-06-15T09:51:28.525Z,18.70
2018-06-15T09:53:56.823Z,18.80
2018-06-15T09:56:25.127Z,18.90
2018-06-15T09:58:54.886Z,19.20
2018-06-15T10:01:23.214Z,19.20
2018-06-15T10:03:51.527Z,19.10
2018-06-15T10:06:19.834Z,19.20
2018-06-15T10:08:48.164Z,19.20
2018-06-15T10:11:16.480Z,19.30
2018-06-15T10:13:44.774Z,19.20
2018-06-15T10:16:13.107Z,19.30
2018-06-15T10:18:41.402Z,19.20
2018-06-15T10:23:37.752Z,19.20
2018-06-15T10:26:06.051Z,19.20
2018-06-15T10:28:34.368Z,19.30
2018-06-15T10:31:02.816Z,19.40
2018-06-15T10:33:31.272Z,19.40
2018-06-15T10:35:59.568Z,19.50
2018-06-15T10:38:27.910Z,19.60
2018-06-15T10:40:56.241Z,19.80
2018-06-15T10:43:24.584Z,19.80
2018-06-15T10:45:52.879Z,19.80
2018-06-15T10:48:21.142Z,19.70
2018-06-15T10:50:49.438Z,19.80
2018-06-15T10:53:17.798Z,19.80
2018-06-15T10:55:46.094Z,19.90
2018-06-15T10:58:14.494Z,20.00
2018-06-15T11:00:42.770Z,20.30
2018-06-15T11:03:11.048Z,20.40
2018-06-15T11:05:39.386Z,20.50
2018-06-15T11:08:07.670Z,20.70
2018-06-15T11:10:35.921Z,20.80
2018-06-15T11:13:04.216Z,20.70
2018-06-15T11:15:32.553Z,20.60
2018-06-15T11:20:28.866Z,20.50
2018-06-15T11:22:57.175Z,20.50
2018-06-15T11:25:25.514Z,20.70
2018-06-15T11:27:53.790Z,20.60
2018-06-15T11:30:22.091Z,20.60
2018-06-15T11:32:50.411Z,20.70
2018-06-15T11:35:18.716Z,20.70
2018-06-15T11:37:47.036Z,20.90
2018-06-15T11:40:15.359Z,20.80
2018-06-15T11:42:43.674Z,20.80
2018-06-15T11:45:11.985Z,20.70
2018-06-15T11:47:40.286Z,20.80
2018-06-15T11:50:08.734Z,20.90
2018-06-15T11:52:37.063Z,20.90
2018-06-15T11:55:05.451Z,20.90
2018-06-15T11:57:33.773Z,21.00
2018-06-15T12:00:02.078Z,20.90
2018-06-15T12:02:30.383Z,20.80
2018-06-15T12:04:58.697Z,20.80
2018-06-15T12:07:27.012Z,20.70
2018-06-15T12:09:55.479Z,20.80
2018-06-15T12:12:23.802Z,21.10
2018-06-15T12:14:52.260Z,21.10
2018-06-15T12:17:20.604Z,21.10
2018-06-15T12:19:48.950Z,21.20
2018-06-15T12:22:18.740Z,21.20
2018-06-15T12:24:47.061Z,21.50
2018-06-15T12:27:15.380Z,21.80
2018-06-15T12:29:43.677Z,22.10
2018-06-15T12:32:11.988Z,22.30
2018-06-15T12:34:40.360Z,22.40
2018-06-15T12:37:08.706Z,22.70
2018-06-15T12:39:37.054Z,22.60
2018-06-15T12:42:05.521Z,22.60
2018-06-15T12:44:34.034Z,22.50
2018-06-15T12:47:02.376Z,22.70
2018-06-15T12:49:30.698Z,22.70
2018-06-15T12:51:59.142Z,22.80
2018-06-15T12:54:27.454Z,23.10
2018-06-15T12:56:55.764Z,23.30
2018-06-15T13:01:52.702Z,23.90
2018-06-15T13:04:21.070Z,24.00
2018-06-15T13:06:49.384Z,24.00
2018-06-15T13:09:17.690Z,23.80
2018-06-15T13:11:46.000Z,23.50
2018-06-15T13:14:20.743Z,23.50
2018-06-15T13:16:49.086Z,23.60
2018-06-15T13:19:17.410Z,23.80
2018-06-15T13:29:09.928Z,23.20
2018-06-15T13:31:38.227Z,23.10
2018-06-15T13:34:06.515Z,23.40
2018-06-15T13:36:41.269Z,23.30
2018-06-15T13:39:11.589Z,23.20
2018-06-15T13:41:39.884Z,23.40
2018-06-15T13:44:08.203Z,23.40
2018-06-15T13:46:36.542Z,23.20
2018-06-15T13:49:05.058Z,23.10
2018-06-15T13:51:33.458Z,23.30
2018-06-15T13:54:01.774Z,23.10
2018-06-15T13:56:30.105Z,23.20
2018-06-15T13:58:58.411Z,23.20
2018-06-15T14:01:26.727Z,23.60
2018-06-15T14:03:55.098Z,23.80
2018-06-15T14:06:23.461Z,24.20
2018-06-15T14:08:51.742Z,24.40
2018-06-15T14:11:20.098Z,24.80
2018-06-15T14:13:48.390Z,25.20
2018-06-15T14:16:16.695Z,25.50
2018-06-15T14:18:44.972Z,25.90
2018-06-15T14:21:13.240Z,25.70
2018-06-15T14:23:41.559Z,25.70
2018-06-15T14:26:09.880Z,26.00
2018-06-15T14:28:38.181Z,26.40
2018-06-15T14:31:06.489Z,26.80
2018-06-15T14:33:34.813Z,26.80
2018-06-15T14:36:03.114Z,26.40
2018-06-15T14:38:31.432Z,26.50
2018-06-15T14:40:59.744Z,26.80
2018-06-15T14:43:28.032Z,26.80
2018-06-15T14:45:56.313Z,26.90
2018-06-15T14:48:24.634Z,27.00
2018-06-15T14:50:52.912Z,27.10
2018-06-15T14:53:21.223Z,27.20
2018-06-15T14:55:49.516Z,27.10
2018-06-15T14:58:17.820Z,26.70
2018-06-15T15:00:46.118Z,27.20
2018-06-15T15:03:14.493Z,27.40
2018-06-15T15:05:42.793Z,27.30
2018-06-15T15:08:11.102Z,27.40
2018-06-15T15:10:39.428Z,27.60
2018-06-15T15:13:07.712Z,27.90
2018-06-15T15:15:36.030Z,28.20
2018-06-15T15:18:04.759Z,28.30
2018-06-15T15:20:33.754Z,28.40
2018-06-15T15:23:02.071Z,28.30
2018-06-15T15:25:30.441Z,28.40
2018-06-15T15:27:58.772Z,28.30
2018-06-15T15:30:27.090Z,28.30
2018-06-15T15:32:55.418Z,28.20
2018-06-15T15:35:23.711Z,28.30
2018-06-15T15:37:52.212Z,28.40
2018-06-15T15:40:20.513Z,28.20
2018-06-15T15:42:48.851Z,28.00
2018-06-15T15:45:17.175Z,27.80
2018-06-15T15:47:45.465Z,27.50
2018-06-15T15:50:13.750Z,27.20
2018-06-15T15:52:42.062Z,27.00
2018-06-15T15:55:10.384Z,26.80
2018-06-15T15:57:38.687Z,26.50
2018-06-15T16:00:07.399Z,26.30
2018-06-15T16:02:35.706Z,26.00
2018-06-15T16:05:04.061Z,25.80
2018-06-15T16:07:32.474Z,25.70
2018-06-15T16:10:00.781Z,25.70
2018-06-15T16:12:29.099Z,25.60
2018-06-15T16:14:57.435Z,25.60
2018-06-15T16:17:25.742Z,25.60
2018-06-15T16:19:54.067Z,25.50
2018-06-15T16:22:22.399Z,25.40
2018-06-15T16:24:50.705Z,25.20
2018-06-15T16:27:19.073Z,25.10
2018-06-15T16:29:47.418Z,25.10
2018-06-15T16:32:15.717Z,25.00
2018-06-15T16:34:44.040Z,24.90
2018-06-15T16:37:12.415Z,24.90
2018-06-15T16:39:40.726Z,24.80
2018-06-15T16:42:09.048Z,24.70
2018-06-15T16:44:37.369Z,24.60
2018-06-15T16:47:05.718Z,24.50
2018-06-15T16:49:34.022Z,24.50
2018-06-15T16:52:02.317Z,24.50
2018-06-15T16:54:30.647Z,24.50
2018-06-15T16:56:58.957Z,24.50
2018-06-15T16:59:27.311Z,24.50
2018-06-15T17:01:55.645Z,24.40
2018-06-15T17:04:24.080Z,24.30
2018-06-15T17:06:52.404Z,24.20
2018-06-15T17:09:20.797Z,24.20
2018-06-15T17:11:49.320Z,24.10
2018-06-15T17:14:17.653Z,24.10
2018-06-15T17:16:46.030Z,24.10
2018-06-15T17:19:14.348Z,24.10
2018-06-15T17:21:42.703Z,24.10
2018-06-15T17:24:11.038Z,24.10
2018-06-15T17:26:39.341Z,24.20
2018-06-15T17:31:35.688Z,24.00
2018-06-15T17:34:03.981Z,24.00
2018-06-15T17:36:32.273Z,24.10
2018-06-15T17:39:00.588Z,24.10
2018-06-15T17:41:28.912Z,24.20
2018-06-15T17:43:57.198Z,24.20
2018-06-15T17:46:25.463Z,24.10
2018-06-15T17:48:53.769Z,24.10
2018-06-15T17:51:22.103Z,24.00
2018-06-15T17:53:50.412Z,24.10
2018-06-15T17:56:18.713Z,24.00
2018-06-15T17:58:47.039Z,24.00
2018-06-15T18:01:15.370Z,23.90
2018-06-15T18:03:43.677Z,23.80
2018-06-15T18:08:40.060Z,23.70
2018-06-15T18:11:08.382Z,23.70
2018-06-15T18:13:36.720Z,23.60
2018-06-15T18:16:05.103Z,23.50
2018-06-15T18:18:33.410Z,23.50
2018-06-15T18:21:01.752Z,23.40
2018-06-15T18:23:30.096Z,23.50
2018-06-15T18:25:58.395Z,23.50
2018-06-15T18:28:26.729Z,23.50
2018-06-15T18:30:55.057Z,23.40
2018-06-15T18:33:23.492Z,23.40
2018-06-15T18:35:51.848Z,23.30
2018-06-15T18:38:20.137Z,23.20
2018-06-15T18:43:16.503Z,23.10
2018-06-15T18:48:12.886Z,23.00
2018-06-15T18:50:41.259Z,23.00
2018-06-15T18:53:09.541Z,23.00
2018-06-15T18:55:37.890Z,23.00
2018-06-15T18:58:06.229Z,23.00
2018-06-15T19:00:34.559Z,23.00
2018-06-15T19:03:02.862Z,23.00
2018-06-15T19:05:31.199Z,22.90
2018-06-15T19:07:59.507Z,22.90
2018-06-15T19:10:27.814Z,22.80
2018-06-15T19:12:56.135Z,22.60
2018-06-15T19:15:24.464Z,22.40
2018-06-15T19:17:52.799Z,22.30
2018-06-15T19:20:21.133Z,22.30
2018-06-15T19:22:49.543Z,22.30
2018-06-15T19:25:17.785Z,22.30
2018-06-15T19:27:46.067Z,22.10
2018-06-15T19:32:42.453Z,22.10
2018-06-15T19:35:10.771Z,21.90
2018-06-15T19:37:39.096Z,21.90
2018-06-15T19:40:07.642Z,21.80
2018-06-15T19:42:35.961Z,21.80
2018-06-15T19:45:04.368Z,21.80
2018-06-15T19:47:33.163Z,21.70
2018-06-15T19:50:01.536Z,21.60
2018-06-15T19:52:29.917Z,21.50
2018-06-15T19:54:58.301Z,21.40
2018-06-15T19:57:26.615Z,21.40
2018-06-15T19:59:54.981Z,21.30
2018-06-15T20:02:23.376Z,21.30
2018-06-15T20:04:51.986Z,21.20
2018-06-15T20:07:21.003Z,21.20
2018-06-15T20:09:49.720Z,21.10
2018-06-15T20:14:47.074Z,21.00
2018-06-15T20:17:16.006Z,21.00
2018-06-15T20:19:47.699Z,20.90
2018-06-15T20:22:16.878Z,20.80
2018-06-15T20:24:46.111Z,20.80
2018-06-15T20:27:15.148Z,20.70
2018-06-15T20:29:43.979Z,20.60
2018-06-15T20:32:12.803Z,20.50
2018-06-15T20:34:41.756Z,20.50
2018-06-15T20:37:10.736Z,20.40
2018-06-15T20:39:39.707Z,20.40
2018-06-15T20:42:08.023Z,20.40
2018-06-15T20:44:36.319Z,20.40
2018-06-15T20:47:04.652Z,20.30
2018-06-15T20:49:32.977Z,20.30
2018-06-15T20:52:01.303Z,20.20
2018-06-15T20:54:29.629Z,20.20
2018-06-15T20:56:57.947Z,20.10
2018-06-15T20:59:26.303Z,20.00
2018-06-15T21:01:54.601Z,20.10
2018-06-15T21:04:22.961Z,20.00
2018-06-15T21:06:51.265Z,19.90
2018-06-15T21:09:19.578Z,19.90
2018-06-15T21:11:47.920Z,19.80
2018-06-15T21:14:16.285Z,19.70
2018-06-15T21:16:44.593Z,19.70
2018-06-15T21:19:12.935Z,19.60
2018-06-15T21:21:41.249Z,19.50
2018-06-15T21:24:09.649Z,19.40
2018-06-15T21:26:37.999Z,19.40
2018-06-15T21:29:06.350Z,19.40
2018-06-15T21:31:34.639Z,19.40
2018-06-15T21:34:02.936Z,19.30
2018-06-15T21:36:31.209Z,19.30
2018-06-15T21:38:59.534Z,19.30
2018-06-15T21:41:27.860Z,19.20
2018-06-15T21:43:56.167Z,19.20
2018-06-15T21:46:24.544Z,19.10
2018-06-15T21:48:52.839Z,19.20
2018-06-15T21:51:21.119Z,19.10
2018-06-15T21:56:17.463Z,19.10
2018-06-15T22:01:13.875Z,18.90
2018-06-15T22:03:42.191Z,18.80
2018-06-15T22:06:10.503Z,18.80
2018-06-15T22:08:38.782Z,18.70
2018-06-15T22:11:07.100Z,18.70
2018-06-15T22:13:35.410Z,18.70
2018-06-15T22:18:33.031Z,18.60
2018-06-15T22:21:01.329Z,18.60
2018-06-15T22:23:29.642Z,18.50
2018-06-15T22:25:57.961Z,18.50
2018-06-15T22:28:26.261Z,18.50
2018-06-15T22:30:54.562Z,18.40
2018-06-15T22:33:22.898Z,18.40
2018-06-15T22:35:51.234Z,18.40
2018-06-15T22:38:19.552Z,18.40
2018-06-15T22:40:47.900Z,18.40
2018-06-15T22:43:16.204Z,18.40
2018-06-15T22:45:44.557Z,18.40
2018-06-15T22:48:12.890Z,18.40
2018-06-15T22:50:41.206Z,18.40
2018-06-15T22:53:09.647Z,18.40
2018-06-15T22:55:37.964Z,18.40
2018-06-15T22:58:06.262Z,18.40
2018-06-15T23:00:34.740Z,18.30
2018-06-15T23:03:03.042Z,18.30
2018-06-15T23:05:31.365Z,18.30
2018-06-15T23:07:59.656Z,18.20
2018-06-15T23:10:27.953Z,18.20
2018-06-15T23:12:56.242Z,18.20
2018-06-15T23:15:24.561Z,18.10
2018-06-15T23:17:52.930Z,18.10
2018-06-15T23:20:21.228Z,18.10
2018-06-15T23:22:49.512Z,18.10
2018-06-15T23:25:17.891Z,18.10
2018-06-15T23:27:46.181Z,18.10
2018-06-15T23:30:14.457Z,18.10
2018-06-15T23:32:42.736Z,18.10
2018-06-15T23:35:11.041Z,18.00
2018-06-15T23:37:39.341Z,18.00
2018-06-15T23:42:35.687Z,17.90
2018-06-15T23:45:04.195Z,17.90
2018-06-15T23:47:32.490Z,17.90
2018-06-15T23:50:00.770Z,17.90
2018-06-15T23:52:29.053Z,17.90
2018-06-15T23:54:57.665Z,17.90
2018-06-15T23:57:25.970Z,18.00
2018-06-15T23:59:54.287Z,17.90
